createdAt,value
2023-01-29T00:00:22.589Z,0.00
2023-01-29T00:01:22.565Z,0.00
2023-01-29T00:02:22.621Z,0.00
2023-01-29T00:03:22.592Z,0.00
2023-01-29T00:04:22.582Z,0.00
2023-01-29T00:05:28.643Z,0.00
2023-01-29T00:06:23.536Z,0.00
2023-01-29T00:07:22.522Z,0.00
2023-01-29T00:08:22.501Z,0.00
2023-01-29T00:09:22.490Z,0.00
2023-01-29T00:10:22.544Z,0.00
2023-01-29T00:11:22.470Z,0.00
2023-01-29T00:12:22.482Z,0.00
2023-01-29T00:13:22.437Z,0.00
2023-01-29T00:14:22.441Z,0.00
2023-01-29T00:15:22.424Z,0.00
2023-01-29T00:16:22.424Z,0.00
2023-01-29T00:17:22.409Z,0.00
2023-01-29T00:18:22.426Z,0.00
2023-01-29T00:19:22.385Z,0.00
2023-01-29T00:20:22.388Z,0.00
2023-01-29T00:21:22.373Z,0.00
2023-01-29T00:22:22.346Z,0.00
2023-01-29T00:23:22.354Z,0.00
2023-01-29T00:24:22.420Z,0.00
2023-01-29T00:25:22.310Z,0.00
2023-01-29T00:26:22.303Z,0.00
2023-01-29T00:27:22.293Z,0.00
2023-01-29T00:28:22.281Z,0.00
2023-01-29T00:29:22.274Z,0.00
2023-01-29T00:30:22.295Z,0.00
2023-01-29T00:31:22.468Z,0.00
2023-01-29T00:32:22.278Z,0.00
2023-01-29T00:33:22.241Z,0.00
2023-01-29T00:34:22.231Z,0.00
2023-01-29T00:35:22.250Z,0.00
2023-01-29T00:36:22.226Z,0.00
2023-01-29T00:37:22.225Z,0.00
2023-01-29T00:38:22.185Z,0.00
2023-01-29T00:39:26.429Z,0.00
2023-01-29T00:40:23.162Z,0.00
2023-01-29T00:41:22.172Z,0.00
2023-01-29T00:42:22.169Z,0.00
2023-01-29T00:43:22.124Z,0.00
2023-01-29T00:44:22.125Z,0.00
2023-01-29T00:45:22.124Z,0.00
2023-01-29T00:46:22.144Z,0.00
2023-01-29T00:47:22.108Z,0.00
2023-01-29T00:48:22.079Z,0.00
2023-01-29T00:49:22.065Z,0.00
2023-01-29T00:50:22.075Z,0.00
2023-01-29T00:51:22.076Z,0.00
2023-01-29T00:52:22.040Z,0.00
2023-01-29T00:53:22.052Z,0.00
2023-01-29T00:54:22.018Z,0.00
2023-01-29T00:55:22.015Z,0.00
2023-01-29T00:56:21.996Z,0.00
2023-01-29T00:57:22.002Z,0.00
2023-01-29T00:58:21.983Z,0.00
2023-01-29T00:59:21.967Z,0.00
2023-01-29T01:00:21.971Z,0.00
2023-01-29T01:01:21.946Z,0.00
2023-01-29T01:02:22.026Z,0.00
2023-01-29T01:03:21.938Z,0.00
2023-01-29T01:04:21.903Z,0.00
2023-01-29T01:05:21.901Z,0.00
2023-01-29T01:06:21.888Z,0.00
2023-01-29T01:07:21.905Z,0.00
2023-01-29T01:08:21.872Z,0.00
2023-01-29T01:09:21.863Z,0.00
2023-01-29T01:10:21.945Z,0.00
2023-01-29T01:11:21.864Z,0.00
2023-01-29T01:12:21.859Z,0.00
2023-01-29T01:13:21.819Z,0.00
2023-01-29T01:14:21.842Z,0.00
2023-01-29T01:15:21.795Z,0.00
2023-01-29T01:16:21.802Z,0.00
2023-01-29T01:17:21.806Z,0.00
2023-01-29T01:18:21.791Z,0.00
2023-01-29T01:19:21.755Z,0.00
2023-01-29T01:20:21.745Z,0.00
2023-01-29T01:21:21.730Z,0.00
2023-01-29T01:22:21.725Z,0.00
2023-01-29T01:23:21.746Z,0.00
2023-01-29T01:24:21.760Z,0.00
2023-01-29T01:25:21.707Z,0.00
2023-01-29T01:26:21.675Z,0.00
2023-01-29T01:27:21.686Z,0.00
2023-01-29T01:28:21.690Z,0.00
2023-01-29T01:29:21.653Z,0.00
2023-01-29T01:30:21.735Z,0.00
2023-01-29T01:31:21.763Z,0.00
2023-01-29T01:32:21.626Z,0.00
2023-01-29T01:33:21.605Z,0.00
2023-01-29T01:34:21.613Z,0.00
2023-01-29T01:35:21.598Z,0.00
2023-01-29T01:36:21.569Z,0.00
2023-01-29T01:37:21.572Z,0.00
2023-01-29T01:38:21.555Z,0.00
2023-01-29T01:39:21.577Z,0.00
2023-01-29T01:40:21.552Z,0.00
2023-01-29T01:41:21.522Z,0.00
2023-01-29T01:42:21.506Z,0.00
2023-01-29T01:43:21.523Z,0.00
2023-01-29T01:44:21.512Z,0.00
2023-01-29T01:45:21.516Z,0.00
2023-01-29T01:46:21.477Z,0.00
2023-01-29T01:47:21.459Z,0.00
2023-01-29T01:48:21.445Z,0.00
2023-01-29T01:49:21.433Z,0.00
2023-01-29T01:50:21.435Z,0.00
2023-01-29T01:51:21.441Z,0.00
2023-01-29T01:52:21.411Z,0.00
2023-01-29T01:53:21.399Z,0.00
2023-01-29T01:54:21.387Z,0.00
2023-01-29T01:55:21.406Z,0.00
2023-01-29T01:56:21.369Z,0.00
2023-01-29T01:57:21.381Z,0.00
2023-01-29T01:58:21.349Z,0.00
2023-01-29T01:59:21.353Z,0.00
2023-01-29T02:00:21.361Z,0.00
2023-01-29T02:01:21.410Z,0.00
2023-01-29T02:02:24.620Z,0.00
2023-01-29T02:03:21.294Z,0.00
2023-01-29T02:04:21.341Z,0.00
2023-01-29T02:05:21.315Z,0.00
2023-01-29T02:06:21.284Z,0.00
2023-01-29T02:07:21.247Z,0.00
2023-01-29T02:08:21.241Z,0.00
2023-01-29T02:09:21.232Z,0.00
2023-01-29T02:10:21.225Z,0.00
2023-01-29T02:11:21.238Z,0.00
2023-01-29T02:12:21.229Z,0.00
2023-01-29T02:13:21.190Z,0.00
2023-01-29T02:14:21.176Z,0.00
2023-01-29T02:15:21.188Z,0.00
2023-01-29T02:16:21.176Z,0.00
2023-01-29T02:17:21.179Z,0.00
2023-01-29T02:18:21.136Z,0.00
2023-01-29T02:19:21.120Z,0.00
2023-01-29T02:20:21.118Z,0.00
2023-01-29T02:21:21.131Z,0.00
2023-01-29T02:22:21.101Z,0.00
2023-01-29T02:23:21.079Z,0.00
2023-01-29T02:24:21.156Z,0.00
2023-01-29T02:25:21.070Z,0.00
2023-01-29T02:26:21.102Z,0.00
2023-01-29T02:27:21.069Z,0.00
2023-01-29T02:28:21.049Z,0.00
2023-01-29T02:29:21.058Z,0.00
2023-01-29T02:30:21.024Z,0.00
2023-01-29T02:31:21.171Z,0.00
2023-01-29T02:32:20.982Z,0.00
2023-01-29T02:33:21.006Z,0.00
2023-01-29T02:34:20.960Z,0.00
2023-01-29T02:35:20.996Z,0.00
2023-01-29T02:36:20.942Z,0.00
2023-01-29T02:37:20.940Z,0.00
2023-01-29T02:38:30.125Z,0.00
2023-01-29T02:39:20.916Z,0.00
2023-01-29T02:40:20.936Z,0.00
2023-01-29T02:41:20.890Z,0.00
2023-01-29T02:42:20.879Z,0.00
2023-01-29T02:43:20.896Z,0.00
2023-01-29T02:44:20.884Z,0.00
2023-01-29T02:45:20.848Z,0.00
2023-01-29T02:46:20.871Z,0.00
2023-01-29T02:47:20.844Z,0.00
2023-01-29T02:48:20.820Z,0.00
2023-01-29T02:49:20.838Z,0.00
2023-01-29T02:50:20.821Z,0.00
2023-01-29T02:51:20.801Z,0.00
2023-01-29T02:52:20.786Z,0.00
2023-01-29T02:53:20.765Z,0.00
2023-01-29T02:54:20.779Z,0.00
2023-01-29T02:55:20.753Z,0.00
2023-01-29T02:56:20.739Z,0.00
2023-01-29T02:57:20.766Z,0.00
2023-01-29T02:58:20.715Z,0.00
2023-01-29T02:59:20.702Z,0.00
2023-01-29T03:00:20.700Z,0.00
2023-01-29T03:01:20.808Z,0.00
2023-01-29T03:02:20.723Z,0.00
2023-01-29T03:03:20.682Z,0.00
2023-01-29T03:04:20.765Z,0.00
2023-01-29T03:05:20.648Z,0.00
2023-01-29T03:06:20.694Z,0.00
2023-01-29T03:07:20.624Z,0.00
2023-01-29T03:08:20.618Z,0.00
2023-01-29T03:09:20.607Z,0.00
2023-01-29T03:10:20.595Z,0.00
2023-01-29T03:11:20.572Z,0.00
2023-01-29T03:12:20.603Z,0.00
2023-01-29T03:13:20.557Z,0.00
2023-01-29T03:14:20.552Z,0.00
2023-01-29T03:15:20.532Z,0.00
2023-01-29T03:16:20.556Z,0.00
2023-01-29T03:17:20.521Z,0.00
2023-01-29T03:18:20.527Z,0.00
2023-01-29T03:19:20.526Z,0.00
2023-01-29T03:20:20.487Z,0.00
2023-01-29T03:21:20.470Z,0.00
2023-01-29T03:22:20.485Z,0.00
2023-01-29T03:23:20.486Z,0.00
2023-01-29T03:24:20.505Z,0.00
2023-01-29T03:25:20.437Z,0.00
2023-01-29T03:26:20.428Z,0.00
2023-01-29T03:27:20.407Z,0.00
2023-01-29T03:28:20.406Z,0.00
2023-01-29T03:29:20.421Z,0.00
2023-01-29T03:30:20.383Z,0.00
2023-01-29T03:31:20.450Z,0.00
2023-01-29T03:32:20.359Z,0.00
2023-01-29T03:33:20.378Z,0.00
2023-01-29T03:34:20.338Z,0.00
2023-01-29T03:35:20.348Z,0.00
2023-01-29T03:36:20.311Z,0.00
2023-01-29T03:37:20.308Z,0.00
2023-01-29T03:38:20.324Z,0.00
2023-01-29T03:39:20.289Z,0.00
2023-01-29T03:40:20.279Z,0.00
2023-01-29T03:41:20.260Z,0.00
2023-01-29T03:42:20.256Z,0.00
2023-01-29T03:43:20.245Z,0.00
2023-01-29T03:44:20.267Z,0.00
2023-01-29T03:45:20.215Z,0.00
2023-01-29T03:46:20.207Z,0.00
2023-01-29T03:47:20.195Z,0.00
2023-01-29T03:48:20.189Z,0.00
2023-01-29T03:49:20.205Z,0.00
2023-01-29T03:50:20.171Z,0.00
2023-01-29T03:51:20.155Z,0.00
2023-01-29T03:52:20.138Z,0.00
2023-01-29T03:53:20.133Z,0.00
2023-01-29T03:54:20.162Z,0.00
2023-01-29T03:55:20.115Z,0.00
2023-01-29T03:56:20.104Z,0.00
2023-01-29T03:57:20.107Z,0.00
2023-01-29T03:58:20.084Z,0.00
2023-01-29T03:59:20.074Z,0.00
2023-01-29T04:00:20.084Z,0.00
2023-01-29T04:01:20.113Z,0.00
2023-01-29T04:02:20.047Z,0.00
2023-01-29T04:03:20.025Z,0.00
2023-01-29T04:04:20.128Z,0.00
2023-01-29T04:05:20.014Z,0.00
2023-01-29T04:06:19.995Z,0.00
2023-01-29T04:07:19.981Z,0.00
2023-01-29T04:08:19.985Z,0.00
2023-01-29T04:09:20.002Z,0.00
2023-01-29T04:10:19.953Z,0.00
2023-01-29T04:11:19.950Z,0.00
2023-01-29T04:12:19.939Z,0.00
2023-01-29T04:13:19.933Z,0.00
2023-01-29T04:14:19.945Z,0.00
2023-01-29T04:15:19.909Z,0.00
2023-01-29T04:16:19.917Z,0.00
2023-01-29T04:17:19.881Z,0.00
2023-01-29T04:18:19.872Z,0.00
2023-01-29T04:19:19.873Z,0.00
2023-01-29T04:20:19.954Z,0.00
2023-01-29T04:21:19.861Z,0.00
2023-01-29T04:22:19.832Z,0.00
2023-01-29T04:23:19.820Z,0.00
2023-01-29T04:24:19.840Z,0.00
2023-01-29T04:25:19.829Z,0.00
2023-01-29T04:26:19.795Z,0.00
2023-01-29T04:27:19.774Z,0.00
2023-01-29T04:28:19.773Z,0.00
2023-01-29T04:29:19.759Z,0.00
2023-01-29T04:30:19.742Z,0.00
2023-01-29T04:31:19.858Z,0.00
2023-01-29T04:32:19.737Z,0.00
2023-01-29T04:33:19.741Z,0.00
2023-01-29T04:34:19.708Z,0.00
2023-01-29T04:35:19.727Z,0.00
2023-01-29T04:36:19.685Z,0.00
2023-01-29T04:37:19.674Z,0.00
2023-01-29T04:38:19.680Z,0.00
2023-01-29T04:39:19.656Z,0.00
2023-01-29T04:40:19.642Z,0.00
2023-01-29T04:41:19.664Z,0.00
2023-01-29T04:42:19.624Z,0.00
2023-01-29T04:43:19.616Z,0.00
2023-01-29T04:44:19.592Z,0.00
2023-01-29T04:45:19.594Z,0.00
2023-01-29T04:46:19.584Z,0.00
2023-01-29T04:47:19.617Z,0.00
2023-01-29T04:48:19.548Z,0.00
2023-01-29T04:49:19.549Z,0.00
2023-01-29T04:50:19.724Z,0.00
2023-01-29T04:51:19.529Z,0.00
2023-01-29T04:52:19.519Z,0.00
2023-01-29T04:53:19.538Z,0.00
2023-01-29T04:54:19.499Z,0.00
2023-01-29T04:55:19.509Z,0.00
2023-01-29T04:56:19.468Z,0.00
2023-01-29T04:57:19.465Z,0.00
2023-01-29T04:58:19.458Z,0.00
2023-01-29T04:59:19.469Z,0.00
2023-01-29T05:00:19.519Z,0.00
2023-01-29T05:01:19.431Z,0.00
2023-01-29T05:02:19.432Z,0.00
2023-01-29T05:03:19.400Z,0.00
2023-01-29T05:04:19.381Z,0.00
2023-01-29T05:05:19.403Z,0.00
2023-01-29T05:06:19.368Z,0.00
2023-01-29T05:07:19.367Z,0.00
2023-01-29T05:08:19.361Z,0.00
2023-01-29T05:09:19.344Z,0.00
2023-01-29T05:10:19.703Z,0.00
2023-01-29T05:11:19.307Z,0.00
2023-01-29T05:12:19.298Z,0.00
2023-01-29T05:13:19.295Z,0.00
2023-01-29T05:14:19.330Z,0.00
2023-01-29T05:15:19.273Z,0.00
2023-01-29T05:16:19.335Z,0.00
2023-01-29T05:17:19.261Z,0.00
2023-01-29T05:18:19.269Z,0.00
2023-01-29T05:19:19.238Z,0.00
2023-01-29T05:20:19.313Z,0.00
2023-01-29T05:21:19.254Z,0.00
2023-01-29T05:22:19.207Z,0.00
2023-01-29T05:23:19.230Z,0.00
2023-01-29T05:24:19.267Z,0.00
2023-01-29T05:25:19.174Z,0.00
2023-01-29T05:26:19.158Z,0.00
2023-01-29T05:27:19.149Z,0.00
2023-01-29T05:28:19.180Z,0.00
2023-01-29T05:29:19.125Z,0.00
2023-01-29T05:30:19.432Z,0.00
2023-01-29T05:31:19.266Z,0.00
2023-01-29T05:32:19.129Z,0.00
2023-01-29T05:33:19.138Z,0.00
2023-01-29T05:34:19.080Z,0.00
2023-01-29T05:35:19.094Z,0.00
2023-01-29T05:36:19.050Z,0.00
2023-01-29T05:37:19.046Z,0.00
2023-01-29T05:38:19.035Z,0.00
2023-01-29T05:39:19.048Z,0.00
2023-01-29T05:40:19.253Z,0.00
2023-01-29T05:41:19.009Z,0.00
2023-01-29T05:42:19.013Z,0.00
2023-01-29T05:43:18.980Z,0.00
2023-01-29T05:44:18.981Z,0.00
2023-01-29T05:45:18.996Z,0.00
2023-01-29T05:46:18.999Z,0.00
2023-01-29T05:47:18.942Z,0.00
2023-01-29T05:48:18.933Z,0.00
2023-01-29T05:49:18.920Z,0.00
2023-01-29T05:50:19.068Z,0.00
2023-01-29T05:51:18.927Z,0.00
2023-01-29T05:52:18.888Z,0.00
2023-01-29T05:53:18.890Z,0.00
2023-01-29T05:54:18.861Z,0.00
2023-01-29T05:55:18.859Z,0.00
2023-01-29T05:56:18.880Z,0.00
2023-01-29T05:57:18.854Z,0.00
2023-01-29T05:58:18.829Z,0.00
2023-01-29T05:59:18.809Z,0.00
2023-01-29T06:00:19.044Z,0.00
2023-01-29T06:01:18.803Z,0.00
2023-01-29T06:02:18.784Z,0.00
2023-01-29T06:03:18.829Z,0.00
2023-01-29T06:04:18.795Z,0.00
2023-01-29T06:05:18.757Z,0.00
2023-01-29T06:06:18.827Z,0.00
2023-01-29T06:07:18.731Z,0.00
2023-01-29T06:08:18.755Z,0.00
2023-01-29T06:09:18.713Z,0.00
2023-01-29T06:10:19.014Z,0.00
2023-01-29T06:11:18.722Z,0.00
2023-01-29T06:12:18.682Z,0.00
2023-01-29T06:13:18.676Z,0.00
2023-01-29T06:14:18.689Z,0.00
2023-01-29T06:15:18.648Z,0.00
2023-01-29T06:16:18.748Z,0.00
2023-01-29T06:17:18.623Z,0.00
2023-01-29T06:18:18.610Z,0.00
2023-01-29T06:19:18.605Z,0.00
2023-01-29T06:20:18.881Z,0.00
2023-01-29T06:21:20.057Z,0.00
2023-01-29T06:22:18.580Z,0.00
2023-01-29T06:23:18.557Z,0.00
2023-01-29T06:24:18.611Z,0.00
2023-01-29T06:25:18.598Z,0.00
2023-01-29T06:26:18.536Z,4.00
2023-01-29T06:27:18.517Z,0.00
2023-01-29T06:28:18.507Z,0.00
2023-01-29T06:29:18.517Z,4.00
2023-01-29T06:30:18.791Z,0.00
2023-01-29T06:31:37.848Z,0.00
2023-01-29T06:32:19.601Z,4.00
2023-01-29T06:33:18.461Z,4.00
2023-01-29T06:34:18.498Z,4.00
2023-01-29T06:35:18.440Z,4.00
2023-01-29T06:36:18.430Z,4.00
2023-01-29T06:37:18.453Z,8.00
2023-01-29T06:38:18.442Z,8.00
2023-01-29T06:39:18.396Z,12.00
2023-01-29T06:40:18.729Z,8.00
2023-01-29T06:41:18.375Z,12.00
2023-01-29T06:42:18.358Z,12.00
2023-01-29T06:43:18.357Z,16.00
2023-01-29T06:44:18.348Z,16.00
2023-01-29T06:45:18.364Z,16.00
2023-01-29T06:46:18.323Z,20.00
2023-01-29T06:47:18.313Z,24.00
2023-01-29T06:48:18.300Z,28.00
2023-01-29T06:49:18.283Z,28.00
2023-01-29T06:50:18.527Z,32.00
2023-01-29T06:51:18.308Z,32.00
2023-01-29T06:52:18.261Z,36.00
2023-01-29T06:53:18.249Z,40.00
2023-01-29T06:54:18.244Z,44.00
2023-01-29T06:55:18.229Z,40.00
2023-01-29T06:56:18.266Z,48.00
2023-01-29T06:57:18.209Z,48.00
2023-01-29T06:58:18.202Z,44.00
2023-01-29T06:59:18.186Z,48.00
2023-01-29T07:00:18.629Z,64.00
2023-01-29T07:01:34.581Z,68.00
2023-01-29T07:02:19.195Z,64.00
2023-01-29T07:03:18.151Z,72.00
2023-01-29T07:04:18.135Z,72.00
2023-01-29T07:05:18.115Z,76.00
2023-01-29T07:06:18.145Z,92.00
2023-01-29T07:07:18.126Z,96.00
2023-01-29T07:08:18.089Z,104.00
2023-01-29T07:09:18.089Z,108.00
2023-01-29T07:10:18.476Z,100.00
2023-01-29T07:11:18.071Z,96.00
2023-01-29T07:12:18.086Z,100.00
2023-01-29T07:13:18.040Z,104.00
2023-01-29T07:14:18.029Z,100.00
2023-01-29T07:15:18.015Z,100.00
2023-01-29T07:16:18.036Z,92.00
2023-01-29T07:17:17.999Z,96.00
2023-01-29T07:18:18.013Z,96.00
2023-01-29T07:19:17.966Z,104.00
2023-01-29T07:20:18.295Z,104.00
2023-01-29T07:21:17.962Z,128.00
2023-01-29T07:22:17.972Z,148.00
2023-01-29T07:23:17.933Z,152.00
2023-01-29T07:24:17.962Z,144.00
2023-01-29T07:25:17.910Z,140.00
2023-01-29T07:26:17.907Z,152.00
2023-01-29T07:27:17.921Z,164.00
2023-01-29T07:28:17.904Z,184.00
2023-01-29T07:29:17.869Z,180.00
2023-01-29T07:30:18.197Z,180.00
2023-01-29T07:31:18.131Z,192.00
2023-01-29T07:32:17.889Z,192.00
2023-01-29T07:33:17.834Z,188.00
2023-01-29T07:34:17.854Z,196.00
2023-01-29T07:35:17.809Z,192.00
2023-01-29T07:36:17.821Z,184.00
2023-01-29T07:37:17.784Z,212.00
2023-01-29T07:38:17.785Z,216.00
2023-01-29T07:39:17.837Z,248.00
2023-01-29T07:40:17.999Z,204.00
2023-01-29T07:41:17.761Z,216.00
2023-01-29T07:42:17.764Z,220.00
2023-01-29T07:43:17.741Z,212.00
2023-01-29T07:44:17.816Z,228.00
2023-01-29T07:45:17.698Z,240.00
2023-01-29T07:46:17.824Z,256.00
2023-01-29T07:47:17.690Z,292.00
2023-01-29T07:48:17.671Z,304.00
2023-01-29T07:49:17.710Z,304.00
2023-01-29T07:50:17.945Z,328.00
2023-01-29T07:51:17.640Z,328.00
2023-01-29T07:52:17.631Z,368.00
2023-01-29T07:53:17.627Z,404.00
2023-01-29T07:54:17.644Z,400.00
2023-01-29T07:55:17.633Z,380.00
2023-01-29T07:56:17.604Z,348.00
2023-01-29T07:57:17.582Z,316.00
2023-01-29T07:58:17.564Z,328.00
2023-01-29T07:59:17.562Z,340.00
2023-01-29T08:00:17.880Z,328.00
2023-01-29T08:01:17.616Z,328.00
2023-01-29T08:02:17.571Z,324.00
2023-01-29T08:03:17.518Z,304.00
2023-01-29T08:04:17.509Z,288.00
2023-01-29T08:05:17.525Z,300.00
2023-01-29T08:06:17.487Z,300.00
2023-01-29T08:07:17.469Z,324.00
2023-01-29T08:08:17.459Z,356.00
2023-01-29T08:09:17.448Z,424.00
2023-01-29T08:10:17.851Z,392.00
2023-01-29T08:11:17.436Z,388.00
2023-01-29T08:12:17.430Z,428.00
2023-01-29T08:13:17.406Z,500.00
2023-01-29T08:14:17.403Z,464.00
2023-01-29T08:15:17.391Z,444.00
2023-01-29T08:16:17.461Z,460.00
2023-01-29T08:17:17.378Z,432.00
2023-01-29T08:18:17.363Z,448.00
2023-01-29T08:19:17.350Z,472.00
2023-01-29T08:20:17.641Z,472.00
2023-01-29T08:21:17.354Z,588.00
2023-01-29T08:22:17.319Z,548.00
2023-01-29T08:23:17.304Z,564.00
2023-01-29T08:24:17.348Z,480.00
2023-01-29T08:25:17.296Z,528.00
2023-01-29T08:26:17.318Z,504.00
2023-01-29T08:27:17.259Z,504.00
2023-01-29T08:28:17.268Z,544.00
2023-01-29T08:29:17.237Z,512.00
2023-01-29T08:30:18.440Z,544.00
2023-01-29T08:31:17.236Z,588.00
2023-01-29T08:32:17.226Z,552.00
2023-01-29T08:33:19.464Z,548.00
2023-01-29T08:34:17.195Z,568.00
2023-01-29T08:35:17.684Z,568.00
2023-01-29T08:36:17.195Z,648.00
2023-01-29T08:37:17.166Z,636.00
2023-01-29T08:38:17.161Z,552.00
2023-01-29T08:39:17.133Z,636.00
2023-01-29T08:40:17.413Z,656.00
2023-01-29T08:41:24.211Z,640.00
2023-01-29T08:42:17.110Z,568.00
2023-01-29T08:43:17.100Z,600.00
2023-01-29T08:44:17.090Z,564.00
2023-01-29T08:45:17.090Z,592.00
2023-01-29T08:46:17.096Z,620.00
2023-01-29T08:47:17.081Z,648.00
2023-01-29T08:48:17.060Z,636.00
2023-01-29T08:49:17.042Z,656.00
2023-01-29T08:50:17.346Z,648.00
2023-01-29T08:51:17.015Z,704.00
2023-01-29T08:52:17.034Z,688.00
2023-01-29T08:53:16.990Z,688.00
2023-01-29T08:54:16.976Z,656.00
2023-01-29T08:55:17.463Z,692.00
2023-01-29T08:56:16.963Z,660.00
2023-01-29T08:57:16.949Z,652.00
2023-01-29T08:58:16.971Z,672.00
2023-01-29T08:59:16.928Z,632.00
2023-01-29T09:00:17.205Z,608.00
2023-01-29T09:01:16.916Z,652.00
2023-01-29T09:02:16.985Z,684.00
2023-01-29T09:03:16.911Z,744.00
2023-01-29T09:04:16.879Z,652.00
2023-01-29T09:05:17.009Z,728.00
2023-01-29T09:06:16.855Z,804.00
2023-01-29T09:07:16.835Z,876.00
2023-01-29T09:08:16.874Z,864.00
2023-01-29T09:09:16.825Z,856.00
2023-01-29T09:10:16.824Z,988.00
2023-01-29T09:11:16.794Z,844.00
2023-01-29T09:12:16.786Z,928.00
2023-01-29T09:13:16.821Z,864.00
2023-01-29T09:14:18.668Z,980.00
2023-01-29T09:15:17.068Z,892.00
2023-01-29T09:16:16.781Z,1040.00
2023-01-29T09:17:16.733Z,1080.00
2023-01-29T09:18:16.728Z,920.00
2023-01-29T09:19:16.740Z,916.00
2023-01-29T09:20:16.698Z,940.00
2023-01-29T09:21:16.695Z,968.00
2023-01-29T09:22:16.698Z,844.00
2023-01-29T09:23:16.674Z,908.00
2023-01-29T09:24:16.684Z,1012.00
2023-01-29T09:25:17.000Z,1096.00
2023-01-29T09:26:16.695Z,1112.00
2023-01-29T09:27:16.657Z,1164.00
2023-01-29T09:28:16.614Z,1204.00
2023-01-29T09:29:16.646Z,1216.00
2023-01-29T09:30:16.633Z,1240.00
2023-01-29T09:31:16.740Z,1100.00
2023-01-29T09:32:23.231Z,1296.00
2023-01-29T09:33:17.620Z,1236.00
2023-01-29T09:34:16.571Z,1236.00
2023-01-29T09:35:16.760Z,1376.00
2023-01-29T09:36:16.556Z,1404.00
2023-01-29T09:37:16.523Z,1432.00
2023-01-29T09:38:16.516Z,1496.00
2023-01-29T09:39:16.748Z,1404.00
2023-01-29T09:40:16.483Z,1612.00
2023-01-29T09:41:16.488Z,1640.00
2023-01-29T09:42:16.469Z,1568.00
2023-01-29T09:43:16.458Z,1452.00
2023-01-29T09:44:16.460Z,1548.00
2023-01-29T09:45:16.834Z,1532.00
2023-01-29T09:46:16.439Z,1636.00
2023-01-29T09:47:16.702Z,1676.00
2023-01-29T09:48:16.408Z,1612.00
2023-01-29T09:49:16.393Z,1740.00
2023-01-29T09:50:17.834Z,1716.00
2023-01-29T09:51:16.366Z,1440.00
2023-01-29T09:52:16.357Z,1660.00
2023-01-29T09:53:16.361Z,1672.00
2023-01-29T09:54:16.333Z,1512.00
2023-01-29T09:55:16.593Z,1820.00
2023-01-29T09:56:16.325Z,2064.00
2023-01-29T09:57:16.298Z,1888.00
2023-01-29T09:58:16.294Z,2056.00
2023-01-29T09:59:16.315Z,2168.00
2023-01-29T10:00:16.278Z,2308.00
2023-01-29T10:01:16.361Z,2732.00
2023-01-29T10:02:16.332Z,2588.00
2023-01-29T10:03:16.245Z,3236.00
2023-01-29T10:04:16.255Z,3996.00
2023-01-29T10:05:16.588Z,3744.00
2023-01-29T10:06:16.258Z,3176.00
2023-01-29T10:07:16.280Z,2636.00
2023-01-29T10:08:16.187Z,2688.00
2023-01-29T10:09:16.172Z,2364.00
2023-01-29T10:10:16.202Z,1940.00
2023-01-29T10:11:16.188Z,2404.00
2023-01-29T10:12:16.145Z,3188.00
2023-01-29T10:13:16.134Z,3164.00
2023-01-29T10:14:16.129Z,3296.00
2023-01-29T10:15:16.441Z,3248.00
2023-01-29T10:16:16.119Z,3468.00
2023-01-29T10:17:16.226Z,2608.00
2023-01-29T10:18:16.076Z,2880.00
2023-01-29T10:19:16.072Z,2220.00
2023-01-29T10:20:16.060Z,2536.00
2023-01-29T10:21:16.068Z,2520.00
2023-01-29T10:22:16.036Z,3776.00
2023-01-29T10:23:16.024Z,4420.00
2023-01-29T10:24:16.024Z,5588.00
2023-01-29T10:25:16.381Z,5852.00
2023-01-29T10:26:16.015Z,5856.00
2023-01-29T10:27:16.031Z,7360.00
2023-01-29T10:28:15.968Z,8648.00
2023-01-29T10:29:15.961Z,5272.00
2023-01-29T10:30:15.978Z,6668.00
2023-01-29T10:31:16.083Z,5868.00
2023-01-29T10:32:15.995Z,4596.00
2023-01-29T10:33:15.917Z,4596.00
2023-01-29T10:34:15.916Z,5376.00
2023-01-29T10:35:16.171Z,3412.00
2023-01-29T10:36:15.884Z,5104.00
2023-01-29T10:37:15.902Z,5808.00
2023-01-29T10:38:15.883Z,3732.00
2023-01-29T10:39:15.855Z,4984.00
2023-01-29T10:40:15.846Z,5476.00
2023-01-29T10:41:15.839Z,4060.00
2023-01-29T10:42:15.823Z,4572.00
2023-01-29T10:43:15.842Z,4824.00
2023-01-29T10:44:15.807Z,4768.00
2023-01-29T10:45:16.165Z,4104.00
2023-01-29T10:46:15.777Z,4508.00
2023-01-29T10:47:15.818Z,4804.00
2023-01-29T10:48:15.765Z,4908.00
2023-01-29T10:49:15.765Z,4284.00
2023-01-29T10:50:15.743Z,4304.00
2023-01-29T10:51:15.721Z,4176.00
2023-01-29T10:52:15.711Z,3872.00
2023-01-29T10:53:15.753Z,3920.00
2023-01-29T10:54:15.697Z,4288.00
2023-01-29T10:55:15.990Z,4080.00
2023-01-29T10:56:22.820Z,3956.00
2023-01-29T10:57:16.666Z,4468.00
2023-01-29T10:58:15.654Z,3836.00
2023-01-29T10:59:15.641Z,3284.00
2023-01-29T11:00:15.640Z,3756.00
2023-01-29T11:01:15.655Z,3504.00
2023-01-29T11:02:15.612Z,2684.00
2023-01-29T11:03:26.844Z,4180.00
2023-01-29T11:04:16.627Z,3408.00
2023-01-29T11:05:15.792Z,3456.00
2023-01-29T11:06:15.561Z,3788.00
2023-01-29T11:07:15.552Z,3288.00
2023-01-29T11:08:15.549Z,3556.00
2023-01-29T11:09:15.525Z,3956.00
2023-01-29T11:10:15.799Z,3488.00
2023-01-29T11:11:15.537Z,2936.00
2023-01-29T11:12:15.498Z,3320.00
2023-01-29T11:13:15.495Z,3260.00
2023-01-29T11:14:15.494Z,3368.00
2023-01-29T11:15:15.525Z,3512.00
2023-01-29T11:16:15.563Z,3464.00
2023-01-29T11:17:15.504Z,3104.00
2023-01-29T11:18:15.456Z,3296.00
2023-01-29T11:19:15.431Z,3256.00
2023-01-29T11:20:15.822Z,3400.00
2023-01-29T11:21:15.424Z,3560.00
2023-01-29T11:22:15.397Z,3592.00
2023-01-29T11:23:15.380Z,3796.00
2023-01-29T11:24:15.383Z,3788.00
2023-01-29T11:25:15.410Z,3436.00
2023-01-29T11:26:15.398Z,3612.00
2023-01-29T11:27:15.341Z,3732.00
2023-01-29T11:28:15.323Z,3540.00
2023-01-29T11:29:15.318Z,3112.00
2023-01-29T11:30:15.747Z,3016.00
2023-01-29T11:31:15.413Z,3220.00
2023-01-29T11:32:15.295Z,3188.00
2023-01-29T11:33:18.275Z,3020.00
2023-01-29T11:34:15.268Z,2912.00
2023-01-29T11:35:15.385Z,2668.00
2023-01-29T11:36:15.240Z,2684.00
2023-01-29T11:37:15.236Z,2724.00
2023-01-29T11:38:15.218Z,2892.00
2023-01-29T11:39:15.206Z,2884.00
2023-01-29T11:40:15.551Z,2884.00
2023-01-29T11:41:15.215Z,2964.00
2023-01-29T11:42:15.184Z,2900.00
2023-01-29T11:43:15.173Z,2756.00
2023-01-29T11:44:15.159Z,2720.00
2023-01-29T11:45:15.151Z,2576.00
2023-01-29T11:46:15.180Z,2676.00
2023-01-29T11:47:15.141Z,2504.00
2023-01-29T11:48:15.119Z,2552.00
2023-01-29T11:49:20.840Z,2536.00
2023-01-29T11:50:19.127Z,2720.00
2023-01-29T11:51:15.091Z,2736.00
2023-01-29T11:52:15.095Z,2860.00
2023-01-29T11:53:15.064Z,2772.00
2023-01-29T11:54:15.060Z,2856.00
2023-01-29T11:55:15.038Z,2884.00
2023-01-29T11:56:15.785Z,2896.00
2023-01-29T11:57:15.024Z,2816.00
2023-01-29T11:58:15.021Z,2784.00
2023-01-29T11:59:15.021Z,2772.00
2023-01-29T12:00:15.660Z,2840.00
2023-01-29T12:01:15.024Z,2880.00
2023-01-29T12:02:14.961Z,2988.00
2023-01-29T12:03:15.099Z,2980.00
2023-01-29T12:04:14.996Z,3008.00
2023-01-29T12:05:14.939Z,3112.00
2023-01-29T12:06:15.112Z,3288.00
2023-01-29T12:07:14.914Z,3256.00
2023-01-29T12:08:14.926Z,3400.00
2023-01-29T12:09:16.676Z,3212.00
2023-01-29T12:10:15.214Z,3000.00
2023-01-29T12:11:14.876Z,2896.00
2023-01-29T12:12:14.878Z,3068.00
2023-01-29T12:13:14.845Z,2860.00
2023-01-29T12:14:14.892Z,2952.00
2023-01-29T12:15:14.834Z,2860.00
2023-01-29T12:16:15.778Z,2944.00
2023-01-29T12:17:14.907Z,3056.00
2023-01-29T12:18:14.850Z,2984.00
2023-01-29T12:19:15.705Z,2964.00
2023-01-29T12:20:15.272Z,2972.00
2023-01-29T12:21:14.859Z,3096.00
2023-01-29T12:22:15.280Z,2988.00
2023-01-29T12:23:14.930Z,3028.00
2023-01-29T12:24:14.863Z,2924.00
2023-01-29T12:25:15.020Z,2640.00
2023-01-29T12:26:14.926Z,2596.00
2023-01-29T12:27:14.893Z,2536.00
2023-01-29T12:28:15.777Z,2448.00
2023-01-29T12:29:14.771Z,2768.00
2023-01-29T12:30:15.124Z,2628.00
2023-01-29T12:31:15.247Z,2604.00
2023-01-29T12:32:14.719Z,2452.00
2023-01-29T12:33:15.207Z,2312.00
2023-01-29T12:34:14.626Z,2304.00
2023-01-29T12:35:14.609Z,2376.00
2023-01-29T12:36:14.628Z,2264.00
2023-01-29T12:37:14.596Z,2324.00
2023-01-29T12:38:14.576Z,2524.00
2023-01-29T12:39:14.580Z,2444.00
2023-01-29T12:40:15.180Z,2360.00
2023-01-29T12:41:14.545Z,2404.00
2023-01-29T12:42:14.534Z,2316.00
2023-01-29T12:43:14.533Z,2448.00
2023-01-29T12:44:14.521Z,2420.00
2023-01-29T12:45:14.526Z,2340.00
2023-01-29T12:46:14.488Z,2204.00
2023-01-29T12:47:16.984Z,1792.00
2023-01-29T12:48:14.501Z,1524.00